createdAt,value
2018-09-25T00:01:25.476Z,92.70
2018-09-25T00:03:59.544Z,92.70
2018-09-25T00:06:33.594Z,92.70
2018-09-25T00:09:07.635Z,92.40
2018-09-25T00:11:41.689Z,92.50
2018-09-25T00:14:15.673Z,92.90
2018-09-25T00:16:49.821Z,92.80
2018-09-25T00:19:23.868Z,93.60
2018-09-25T00:21:58.040Z,92.80
2018-09-25T00:24:32.053Z,93.20
2018-09-25T00:27:06.138Z,93.40
2018-09-25T00:29:40.231Z,92.90
2018-09-25T00:32:14.285Z,92.80
2018-09-25T00:34:48.405Z,92.90
2018-09-25T00:37:22.644Z,93.00
2018-09-25T00:39:56.772Z,92.60
2018-09-25T00:42:30.874Z,92.60
2018-09-25T00:45:04.886Z,92.80
2018-09-25T00:47:38.985Z,92.90
2018-09-25T00:50:13.181Z,92.60
2018-09-25T00:52:47.299Z,92.60
2018-09-25T00:55:21.429Z,92.60
2018-09-25T00:57:55.530Z,92.30
2018-09-25T01:00:29.652Z,92.30
2018-09-25T01:03:03.713Z,92.30
2018-09-25T01:05:37.775Z,92.20
2018-09-25T01:08:11.865Z,92.00
2018-09-25T01:10:45.996Z,92.00
2018-09-25T01:13:20.070Z,92.00
2018-09-25T01:15:54.091Z,92.00
2018-09-25T01:18:28.059Z,92.10
2018-09-25T01:21:02.184Z,92.30
2018-09-25T01:23:36.308Z,92.40
2018-09-25T01:26:10.228Z,92.40
2018-09-25T01:28:44.309Z,92.20
2018-09-25T01:31:18.482Z,92.90
2018-09-25T01:33:52.652Z,92.50
2018-09-25T01:36:26.723Z,92.50
2018-09-25T01:39:00.724Z,92.30
2018-09-25T01:41:34.832Z,92.30
2018-09-25T01:44:08.940Z,92.80
2018-09-25T01:46:43.048Z,92.80
2018-09-25T01:49:17.067Z,92.70
2018-09-25T01:51:51.079Z,92.90
2018-09-25T01:54:25.163Z,92.80
2018-09-25T01:56:59.181Z,92.70
2018-09-25T01:59:33.325Z,92.90
2018-09-25T02:02:07.429Z,93.10
2018-09-25T02:04:41.492Z,92.80
2018-09-25T02:07:15.667Z,92.80
2018-09-25T02:09:49.769Z,92.80
2018-09-25T02:12:23.784Z,93.10
2018-09-25T02:14:57.772Z,93.40
2018-09-25T02:17:31.868Z,93.50
2018-09-25T02:20:06.013Z,93.90
2018-09-25T02:22:40.068Z,93.90
2018-09-25T02:25:14.247Z,93.80
2018-09-25T02:27:48.232Z,93.70
2018-09-25T02:30:22.381Z,93.60
2018-09-25T02:32:56.313Z,93.80
2018-09-25T02:35:30.518Z,93.80
2018-09-25T02:38:04.499Z,93.50
2018-09-25T02:40:38.615Z,93.80
2018-09-25T02:43:12.631Z,93.70
2018-09-25T02:45:46.659Z,94.00
2018-09-25T02:48:20.704Z,93.70
2018-09-25T02:50:54.708Z,93.70
2018-09-25T02:53:28.784Z,93.80
2018-09-25T02:56:02.944Z,93.90
2018-09-25T02:58:36.897Z,93.50
2018-09-25T03:01:10.992Z,93.80
2018-09-25T03:03:45.092Z,93.60
2018-09-25T03:06:19.248Z,93.80
2018-09-25T03:08:53.867Z,93.60
2018-09-25T03:11:27.885Z,94.00
2018-09-25T03:14:02.015Z,94.30
2018-09-25T03:16:36.093Z,94.40
2018-09-25T03:19:10.162Z,94.50
2018-09-25T03:21:44.189Z,94.50
2018-09-25T03:24:18.346Z,94.60
2018-09-25T03:26:52.301Z,94.50
2018-09-25T03:29:26.266Z,94.70
2018-09-25T03:32:00.157Z,94.70
2018-09-25T03:34:34.176Z,94.60
2018-09-25T03:37:08.363Z,94.80
2018-09-25T03:39:42.556Z,95.00
2018-09-25T03:42:16.610Z,94.90
2018-09-25T03:44:50.941Z,95.20
2018-09-25T03:47:25.024Z,95.20
2018-09-25T03:49:59.003Z,95.40
2018-09-25T03:52:33.044Z,95.50
2018-09-25T03:55:07.136Z,95.70
2018-09-25T03:57:41.189Z,95.70
2018-09-25T04:00:14.805Z,95.50
2018-09-25T04:02:48.773Z,95.70
2018-09-25T04:05:22.787Z,95.80
2018-09-25T04:07:56.873Z,96.00
2018-09-25T04:10:31.606Z,96.20
2018-09-25T04:13:05.580Z,96.50
2018-09-25T04:15:39.652Z,96.90
2018-09-25T04:18:13.566Z,97.20
2018-09-25T04:20:47.634Z,97.20
2018-09-25T04:23:21.728Z,97.50
2018-09-25T04:25:55.777Z,97.40
2018-09-25T04:28:29.903Z,97.10
2018-09-25T04:31:03.987Z,96.70
2018-09-25T04:33:38.212Z,96.40
2018-09-25T04:36:12.380Z,95.90
2018-09-25T04:38:46.448Z,96.20
2018-09-25T04:41:20.535Z,96.10
2018-09-25T04:43:54.647Z,96.20
2018-09-25T04:46:28.640Z,96.10
2018-09-25T04:49:02.661Z,96.00
2018-09-25T04:51:36.744Z,96.00
2018-09-25T04:54:10.912Z,95.90
2018-09-25T04:56:45.132Z,95.90
2018-09-25T04:59:19.219Z,95.80
2018-09-25T05:01:53.365Z,95.50
2018-09-25T05:04:28.628Z,95.20
2018-09-25T05:07:02.893Z,94.60
2018-09-25T05:09:37.123Z,94.20
2018-09-25T05:12:11.417Z,94.40
2018-09-25T05:14:45.552Z,94.60
2018-09-25T05:17:19.599Z,94.20
2018-09-25T05:19:53.912Z,94.70
2018-09-25T05:22:28.127Z,95.00
2018-09-25T05:25:02.373Z,94.90
2018-09-25T05:27:36.450Z,95.00
2018-09-25T05:30:11.106Z,94.90
2018-09-25T05:32:45.247Z,94.90
2018-09-25T05:35:19.435Z,95.00
2018-09-25T05:37:53.608Z,94.90
2018-09-25T05:40:27.634Z,94.80
2018-09-25T05:43:02.182Z,94.60
2018-09-25T05:45:36.349Z,94.30
2018-09-25T05:48:10.658Z,94.20
2018-09-25T05:50:44.826Z,93.90
2018-09-25T05:53:18.923Z,93.80
2018-09-25T05:55:53.058Z,93.80
2018-09-25T05:58:27.065Z,93.80
2018-09-25T06:01:01.133Z,93.20
2018-09-25T06:03:35.249Z,93.50
2018-09-25T06:06:09.417Z,93.60
2018-09-25T06:08:43.667Z,93.80
2018-09-25T06:11:19.806Z,93.30
2018-09-25T06:13:53.966Z,93.70
2018-09-25T06:16:27.964Z,92.80
2018-09-25T06:19:02.156Z,92.80
2018-09-25T06:21:36.218Z,92.50
2018-09-25T06:24:10.236Z,92.50
2018-09-25T06:26:44.239Z,92.40
2018-09-25T06:29:18.356Z,92.30
2018-09-25T06:31:52.397Z,92.00
2018-09-25T06:34:26.627Z,91.50
2018-09-25T06:37:00.708Z,91.30
2018-09-25T06:39:34.905Z,91.00
2018-09-25T06:42:08.877Z,91.00
2018-09-25T06:44:42.879Z,90.30
2018-09-25T06:47:17.050Z,89.70
2018-09-25T06:49:51.136Z,89.30
2018-09-25T06:52:25.188Z,88.80
2018-09-25T06:54:59.500Z,87.00
2018-09-25T06:57:33.489Z,86.70
2018-09-25T07:00:07.614Z,86.00
2018-09-25T07:02:41.706Z,85.70
2018-09-25T07:05:15.910Z,84.40
2018-09-25T07:07:49.878Z,82.20
2018-09-25T07:10:24.210Z,80.90
2018-09-25T07:12:58.248Z,80.20
2018-09-25T07:15:33.219Z,79.30
2018-09-25T07:18:07.334Z,80.00
2018-09-25T07:20:41.464Z,80.60
2018-09-25T07:23:15.548Z,81.10
2018-09-25T07:25:49.678Z,80.60
2018-09-25T07:28:23.896Z,81.20
2018-09-25T07:30:58.002Z,80.90
2018-09-25T07:33:32.124Z,81.40
2018-09-25T07:36:06.205Z,82.70
2018-09-25T07:38:40.225Z,84.00
2018-09-25T07:41:14.504Z,85.50
2018-09-25T07:43:48.650Z,84.20
2018-09-25T07:46:22.786Z,82.90
2018-09-25T07:48:56.804Z,81.40
2018-09-25T07:51:30.967Z,80.30
2018-09-25T07:54:05.049Z,78.90
2018-09-25T07:56:39.218Z,78.10
2018-09-25T07:59:13.276Z,77.60
2018-09-25T08:01:47.500Z,76.30
2018-09-25T08:04:21.594Z,75.00
2018-09-25T08:06:55.725Z,73.80
2018-09-25T08:09:29.732Z,72.20
2018-09-25T08:12:04.878Z,72.70
2018-09-25T08:14:38.968Z,71.20
2018-09-25T08:17:12.979Z,70.80
2018-09-25T08:19:46.908Z,71.50
2018-09-25T08:22:21.057Z,70.00
2018-09-25T08:24:55.149Z,70.50
2018-09-25T08:27:29.209Z,69.90
2018-09-25T08:30:03.274Z,69.90
2018-09-25T08:32:37.283Z,68.80
2018-09-25T08:35:11.365Z,68.30
2018-09-25T08:37:45.436Z,67.30
2018-09-25T08:40:19.508Z,66.50
2018-09-25T08:42:53.644Z,65.00
2018-09-25T08:45:27.743Z,66.60
2018-09-25T08:48:01.783Z,65.00
2018-09-25T08:50:35.820Z,65.30
2018-09-25T08:53:10.005Z,64.40
2018-09-25T08:55:44.163Z,64.10
2018-09-25T08:58:18.207Z,62.70
2018-09-25T09:00:52.303Z,62.20
2018-09-25T09:03:26.443Z,61.20
2018-09-25T09:06:00.562Z,59.60
2018-09-25T09:08:34.753Z,60.00
2018-09-25T09:11:08.830Z,59.30
2018-09-25T09:13:42.919Z,59.30
2018-09-25T09:16:16.955Z,59.60
2018-09-25T09:18:51.057Z,58.80
2018-09-25T09:21:25.101Z,59.40
2018-09-25T09:23:59.280Z,60.40
2018-09-25T09:26:33.421Z,61.10
2018-09-25T09:29:07.635Z,61.90
2018-09-25T09:31:41.674Z,61.20
2018-09-25T09:34:15.770Z,60.80
2018-09-25T09:36:49.843Z,59.30
2018-09-25T09:39:23.941Z,58.00
2018-09-25T09:41:58.320Z,58.80
2018-09-25T09:44:32.286Z,57.90
2018-09-25T09:47:06.443Z,58.50
2018-09-25T09:49:40.472Z,57.00
2018-09-25T09:52:14.574Z,56.20
2018-09-25T09:54:48.708Z,56.60
2018-09-25T09:57:22.870Z,56.90
2018-09-25T09:59:56.959Z,57.20
2018-09-25T10:02:31.028Z,57.40
2018-09-25T10:05:05.161Z,57.70
2018-09-25T10:07:39.141Z,56.60
2018-09-25T10:10:13.356Z,56.70
2018-09-25T10:12:47.385Z,56.80
2018-09-25T10:15:21.352Z,56.50
2018-09-25T10:17:55.367Z,56.30
2018-09-25T10:20:29.488Z,55.90
2018-09-25T10:23:03.591Z,54.80
2018-09-25T10:25:37.779Z,54.80
2018-09-25T10:28:11.800Z,54.80
2018-09-25T10:30:45.928Z,55.60
2018-09-25T10:33:19.939Z,55.90
2018-09-25T10:35:54.137Z,56.10
2018-09-25T10:38:28.235Z,56.60
2018-09-25T10:41:02.472Z,57.10
2018-09-25T10:43:36.533Z,57.30
2018-09-25T10:46:10.608Z,57.70
2018-09-25T10:48:44.533Z,58.00
2018-09-25T10:51:18.712Z,58.30
2018-09-25T10:53:52.855Z,57.90
2018-09-25T10:56:26.957Z,58.10
2018-09-25T10:59:01.080Z,58.40
2018-09-25T11:01:35.206Z,58.70
2018-09-25T11:04:09.291Z,59.30
2018-09-25T11:06:43.426Z,58.50
2018-09-25T11:09:17.370Z,58.80
2018-09-25T11:11:51.468Z,58.90
2018-09-25T11:14:25.535Z,58.90
2018-09-25T11:16:59.682Z,58.30
2018-09-25T11:19:33.609Z,59.20
2018-09-25T11:22:07.670Z,58.00
2018-09-25T11:24:41.720Z,58.20
2018-09-25T11:27:15.884Z,57.50
2018-09-25T11:29:49.823Z,57.40
2018-09-25T11:32:23.963Z,57.30
2018-09-25T11:34:58.005Z,57.40
2018-09-25T11:37:32.191Z,57.20
2018-09-25T11:40:06.335Z,57.20
2018-09-25T11:42:40.464Z,57.30
2018-09-25T11:45:14.516Z,57.80
2018-09-25T11:47:48.612Z,57.90
2018-09-25T11:50:22.785Z,57.10
2018-09-25T11:52:57.019Z,57.10
2018-09-25T11:55:31.156Z,57.20
2018-09-25T11:58:05.313Z,56.30
2018-09-25T12:00:39.456Z,55.90
2018-09-25T12:03:13.352Z,56.00
2018-09-25T12:05:47.302Z,55.80
2018-09-25T12:08:21.405Z,55.40
2018-09-25T12:10:55.572Z,55.00
2018-09-25T12:13:29.642Z,55.10
2018-09-25T12:16:03.797Z,56.20
2018-09-25T12:18:37.948Z,58.10
2018-09-25T12:21:12.322Z,60.70
2018-09-25T12:23:46.288Z,61.00
2018-09-25T12:26:20.404Z,61.90
2018-09-25T12:28:54.511Z,59.30
2018-09-25T12:31:28.673Z,59.00
2018-09-25T12:34:02.745Z,59.40
2018-09-25T12:36:37.016Z,59.30
2018-09-25T12:39:12.966Z,59.50
2018-09-25T12:41:47.240Z,59.20
2018-09-25T12:44:21.247Z,60.00
2018-09-25T12:46:55.378Z,61.90
2018-09-25T12:49:29.418Z,64.80
2018-09-25T12:52:03.642Z,72.70
2018-09-25T12:54:37.712Z,84.60
2018-09-25T12:57:12.077Z,90.10
2018-09-25T12:59:46.085Z,90.00
2018-09-25T13:02:20.101Z,90.10
2018-09-25T13:04:54.157Z,93.90
2018-09-25T13:07:28.266Z,92.00
2018-09-25T13:10:02.266Z,94.00
2018-09-25T13:12:36.528Z,93.30
2018-09-25T13:15:10.601Z,92.60
2018-09-25T13:17:44.752Z,91.30
2018-09-25T13:20:18.755Z,92.10
2018-09-25T13:22:52.978Z,91.70
2018-09-25T13:25:27.090Z,92.00
2018-09-25T13:28:01.255Z,91.10
2018-09-25T13:30:35.385Z,91.40
2018-09-25T13:33:09.486Z,89.00
2018-09-25T13:35:43.380Z,90.20
2018-09-25T13:38:17.621Z,85.90
2018-09-25T13:40:51.737Z,88.80
2018-09-25T13:43:25.864Z,84.40
2018-09-25T13:46:00.047Z,84.40
2018-09-25T13:48:34.046Z,83.40
2018-09-25T13:51:08.167Z,85.60
2018-09-25T13:53:42.435Z,84.00
2018-09-25T13:56:16.545Z,85.20
2018-09-25T13:58:50.707Z,80.70
2018-09-25T14:01:24.900Z,87.90
2018-09-25T14:03:58.978Z,84.30
2018-09-25T14:06:33.075Z,80.30
2018-09-25T14:09:07.108Z,78.10
2018-09-25T14:11:41.140Z,77.20
2018-09-25T14:14:15.291Z,78.20
2018-09-25T14:16:49.371Z,79.40
2018-09-25T14:19:23.403Z,75.70
2018-09-25T14:21:57.445Z,76.30
2018-09-25T14:24:31.521Z,77.80
2018-09-25T14:27:05.723Z,76.60
2018-09-25T14:29:39.782Z,70.70
2018-09-25T14:32:13.830Z,71.70
2018-09-25T14:34:48.000Z,69.90
2018-09-25T14:37:22.204Z,71.00
2018-09-25T14:39:56.460Z,71.60
2018-09-25T14:42:30.559Z,68.80
2018-09-25T14:45:04.551Z,70.00
2018-09-25T14:47:38.625Z,72.40
2018-09-25T14:50:12.762Z,72.10
2018-09-25T14:52:46.820Z,72.10
2018-09-25T14:55:20.897Z,72.70
2018-09-25T14:57:54.891Z,74.20
2018-09-25T15:03:08.740Z,70.00
2018-09-25T15:05:43.150Z,69.30
2018-09-25T15:08:17.214Z,70.20
2018-09-25T15:10:51.353Z,68.50
2018-09-25T15:13:25.380Z,69.50
2018-09-25T15:15:59.509Z,68.90
2018-09-25T15:18:33.560Z,67.50
2018-09-25T15:21:07.688Z,67.30
2018-09-25T15:23:41.789Z,66.10
2018-09-25T15:26:15.829Z,67.00
2018-09-25T15:28:50.144Z,66.50
2018-09-25T15:31:24.247Z,67.40
2018-09-25T15:33:58.387Z,68.20
2018-09-25T15:36:32.611Z,66.60
2018-09-25T15:39:07.048Z,64.80
2018-09-25T15:41:43.763Z,65.30
2018-09-25T15:44:17.875Z,64.00
2018-09-25T15:46:51.888Z,65.00
2018-09-25T15:49:25.967Z,64.30
2018-09-25T15:52:00.000Z,64.60
2018-09-25T15:54:34.210Z,65.30
2018-09-25T15:57:08.349Z,67.40
2018-09-25T15:59:42.316Z,66.20
2018-09-25T16:02:16.532Z,66.60
2018-09-25T16:04:50.705Z,67.70
2018-09-25T16:07:24.866Z,69.50
2018-09-25T16:09:58.875Z,70.00
2018-09-25T16:12:33.755Z,68.00
2018-09-25T16:15:07.727Z,68.20
2018-09-25T16:17:41.831Z,65.80
2018-09-25T16:20:16.039Z,64.60
2018-09-25T16:22:50.091Z,64.80
2018-09-25T16:25:24.232Z,62.50
2018-09-25T16:27:58.403Z,63.80
2018-09-25T16:30:32.610Z,64.40
2018-09-25T16:33:06.574Z,64.20
2018-09-25T16:35:40.854Z,64.40
2018-09-25T16:38:14.892Z,65.30
2018-09-25T16:40:49.074Z,65.70
2018-09-25T16:43:23.220Z,67.50
2018-09-25T16:45:57.648Z,69.00
2018-09-25T16:48:31.633Z,69.70
2018-09-25T16:51:05.765Z,70.20
2018-09-25T16:53:39.963Z,72.40
2018-09-25T16:56:14.273Z,72.50
2018-09-25T16:58:48.364Z,72.50
2018-09-25T17:01:22.462Z,72.20
2018-09-25T17:03:56.616Z,74.60
2018-09-25T17:06:30.790Z,74.50
2018-09-25T17:09:05.032Z,73.10
2018-09-25T17:11:39.137Z,72.40
2018-09-25T17:14:13.203Z,73.30
2018-09-25T17:16:47.259Z,71.80
2018-09-25T17:19:21.562Z,73.30
2018-09-25T17:21:55.787Z,73.80
2018-09-25T17:24:37.008Z,79.10
2018-09-25T17:27:11.089Z,81.80
2018-09-25T17:29:45.213Z,81.70
2018-09-25T17:32:19.310Z,82.10
2018-09-25T17:34:53.439Z,81.90
2018-09-25T17:37:27.525Z,82.80
2018-09-25T17:40:01.754Z,80.70
2018-09-25T17:42:35.832Z,85.90
2018-09-25T17:45:10.040Z,87.90
2018-09-25T17:47:44.236Z,90.00
2018-09-25T17:50:18.309Z,87.50
2018-09-25T17:52:52.407Z,83.40
2018-09-25T17:55:26.524Z,85.80
2018-09-25T17:58:00.670Z,90.10
2018-09-25T18:00:35.469Z,87.30
2018-09-25T18:03:10.041Z,90.20
2018-09-25T18:05:44.142Z,90.60
2018-09-25T18:08:19.358Z,92.50
2018-09-25T18:10:53.436Z,91.80
2018-09-25T18:13:27.493Z,91.80
2018-09-25T18:16:01.688Z,91.90
2018-09-25T18:18:35.723Z,91.90
2018-09-25T18:21:09.804Z,92.20
2018-09-25T18:23:44.018Z,92.10
2018-09-25T18:26:18.105Z,91.80
2018-09-25T18:28:52.347Z,92.30
2018-09-25T18:31:27.028Z,93.00
2018-09-25T18:34:01.312Z,93.40
2018-09-25T18:36:35.535Z,92.70
2018-09-25T18:39:11.112Z,93.00
2018-09-25T18:44:53.643Z,93.10
2018-09-25T18:47:28.429Z,94.20
2018-09-25T18:50:02.546Z,93.70
2018-09-25T18:52:36.738Z,92.90
2018-09-25T18:55:11.910Z,92.30
2018-09-25T18:57:46.130Z,93.50
2018-09-25T19:00:20.869Z,93.40
2018-09-25T19:02:54.969Z,93.00
2018-09-25T19:05:29.377Z,93.90
2018-09-25T19:08:03.502Z,93.30
2018-09-25T19:10:37.663Z,94.10
2018-09-25T19:13:11.793Z,94.30
2018-09-25T19:15:46.603Z,93.20
2018-09-25T19:18:20.814Z,93.70
2018-09-25T19:20:55.197Z,94.30
2018-09-25T19:23:29.301Z,94.70
2018-09-25T19:26:03.412Z,94.70
2018-09-25T19:28:37.524Z,94.70
2018-09-25T19:31:11.552Z,95.00
2018-09-25T19:33:45.752Z,95.10
2018-09-25T19:36:19.856Z,95.30
2018-09-25T19:38:54.065Z,95.50
2018-09-25T19:41:28.126Z,95.40
2018-09-25T19:44:05.601Z,95.30
2018-09-25T19:46:39.990Z,95.60
2018-09-25T19:49:14.472Z,95.10
2018-09-25T19:51:48.668Z,95.00
2018-09-25T19:54:24.290Z,95.50
2018-09-25T19:56:58.505Z,95.50
2018-09-25T19:59:33.708Z,95.20
2018-09-25T20:02:07.849Z,95.10
2018-09-25T20:04:41.938Z,96.50
2018-09-25T20:07:16.085Z,96.50
2018-09-25T20:09:50.263Z,96.70
2018-09-25T20:12:24.445Z,97.10
2018-09-25T20:14:58.635Z,97.30
2018-09-25T20:17:32.730Z,97.10
2018-09-25T20:20:06.783Z,96.90
2018-09-25T20:22:40.927Z,97.50
2018-09-25T20:25:15.055Z,97.20
2018-09-25T20:27:51.036Z,97.00
2018-09-25T20:30:25.241Z,97.00
2018-09-25T20:32:59.291Z,97.30
2018-09-25T20:35:34.488Z,97.60
2018-09-25T20:38:08.759Z,97.30
2018-09-25T20:40:43.093Z,97.80
2018-09-25T20:43:18.499Z,98.10
2018-09-25T20:45:52.705Z,98.00
2018-09-25T20:48:26.716Z,97.90
2018-09-25T20:51:00.838Z,97.60
2018-09-25T20:53:35.137Z,97.80
2018-09-25T20:56:09.220Z,97.80
2018-09-25T20:58:44.678Z,98.10
2018-09-25T21:01:18.967Z,98.70
2018-09-25T21:03:53.184Z,98.90
2018-09-25T21:06:27.381Z,99.00
2018-09-25T21:09:01.781Z,98.80
2018-09-25T21:11:36.256Z,98.80
2018-09-25T21:14:13.061Z,98.60
2018-09-25T21:16:47.112Z,98.60
2018-09-25T21:19:21.229Z,98.70
2018-09-25T21:21:55.675Z,98.80
2018-09-25T21:24:29.718Z,98.80
2018-09-25T21:27:03.937Z,98.80
2018-09-25T21:29:39.213Z,98.80
2018-09-25T21:32:13.338Z,99.00
2018-09-25T21:34:47.527Z,99.20
2018-09-25T21:37:21.911Z,99.20
2018-09-25T21:39:56.030Z,99.10
2018-09-25T21:42:31.357Z,99.60
2018-09-25T21:45:05.509Z,99.20
2018-09-25T21:47:39.587Z,99.20
2018-09-25T21:50:13.752Z,99.20
2018-09-25T21:52:47.958Z,99.40
2018-09-25T21:55:22.073Z,99.50
2018-09-25T21:57:56.372Z,99.60
2018-09-25T22:00:30.511Z,99.40
2018-09-25T22:03:04.636Z,99.40
2018-09-25T22:05:38.806Z,99.50
2018-09-25T22:08:17.122Z,99.90
2018-09-25T22:10:51.385Z,99.90
2018-09-25T22:13:25.500Z,99.80
2018-09-25T22:15:59.764Z,99.50
2018-09-25T22:18:34.100Z,99.80
2018-09-25T22:21:08.224Z,99.80
2018-09-25T22:23:42.385Z,99.80
2018-09-25T22:26:17.075Z,99.70
2018-09-25T22:28:51.296Z,99.80
2018-09-25T22:31:25.300Z,99.60
2018-09-25T22:33:59.448Z,99.60
2018-09-25T22:36:33.445Z,99.80
2018-09-25T22:39:07.643Z,99.80
2018-09-25T22:41:41.664Z,99.90
2018-09-25T22:44:15.882Z,99.70
2018-09-25T22:46:49.965Z,99.90
2018-09-25T22:49:24.180Z,99.90
2018-09-25T22:51:58.240Z,99.90
2018-09-25T22:54:32.237Z,99.90
2018-09-25T22:57:06.332Z,99.90
2018-09-25T22:59:40.518Z,99.90
2018-09-25T23:02:14.690Z,99.90
2018-09-25T23:04:48.823Z,99.90
2018-09-25T23:07:22.925Z,99.90
2018-09-25T23:09:57.142Z,99.90
2018-09-25T23:12:31.156Z,99.90
2018-09-25T23:15:05.242Z,99.90
2018-09-25T23:17:39.436Z,99.90
2018-09-25T23:20:13.590Z,99.90
2018-09-25T23:22:47.712Z,99.90
2018-09-25T23:25:21.749Z,99.90
2018-09-25T23:27:55.840Z,99.90
2018-09-25T23:30:30.046Z,99.90
2018-09-25T23:33:04.032Z,99.90
2018-09-25T23:35:38.266Z,99.90
2018-09-25T23:38:12.295Z,99.90
2018-09-25T23:40:48.263Z,99.90
2018-09-25T23:43:30.449Z,99.90
2018-09-25T23:48:06.771Z,99.90
2018-09-25T23:50:41.688Z,99.90
2018-09-25T23:53:15.712Z,99.90
2018-09-25T23:55:52.920Z,99.90
2018-09-25T23:58:25.201Z,99.90
